Time;durP1;ratioP1;P1;durP2;ratioP2;P2;SDS_P1;SDS_P2;PMS_P1;PMS_P2;Temp;Humidity;BMP_temperature;BMP_pressure;BME280_temperature;BME280_humidity;BME280_pressure;Samples;Min_cycle;Max_cycle;Signal;HPM_P1;HPM_P2
2022/09/11 00:00:36;;;;;;;5.40;1.37;;;;;;;15.20;92.27;98855.44;4935287;28;20243;-51
2022/09/11 00:03:03;;;;;;;4.23;1.53;;;;;;;15.16;92.60;98856.00;4935501;28;20236;-54
2022/09/11 00:05:31;;;;;;;5.37;1.40;;;;;;;15.21;92.70;98856.28;4934277;28;20236;-52
2022/09/11 00:07:57;;;;;;;2.50;1.37;;;;;;;15.21;93.62;98864.16;4929955;28;20236;-51
2022/09/11 00:10:24;;;;;;;4.80;1.43;;;;;;;15.20;93.64;98858.09;4937912;28;20260;-50
2022/09/11 00:12:51;;;;;;;4.30;1.40;;;;;;;15.25;92.51;98848.84;4931708;28;20250;-53
2022/09/11 00:15:18;;;;;;;3.00;1.20;;;;;;;15.24;92.32;98847.22;4931574;28;20313;-52
2022/09/11 00:17:44;;;;;;;5.47;1.20;;;;;;;15.24;92.84;98853.31;4933852;28;20755;-51
2022/09/11 00:20:11;;;;;;;4.57;1.20;;;;;;;15.25;93.31;98846.22;4931033;28;20785;-53
2022/09/11 00:22:39;;;;;;;1.60;1.00;;;;;;;15.20;92.86;98847.56;4936615;28;20266;-51
2022/09/11 00:25:06;;;;;;;4.27;1.33;;;;;;;15.20;93.75;98842.31;4934611;28;20273;-52
2022/09/11 00:27:33;;;;;;;5.60;1.37;;;;;;;15.18;93.37;98839.03;4938834;28;20233;-53
2022/09/11 00:30:00;;;;;;;1.93;1.10;;;;;;;15.26;93.42;98840.81;4917154;28;20312;-53
2022/09/11 00:32:27;;;;;;;5.47;1.43;;;;;;;15.23;93.55;98840.31;4937742;28;20238;-54
2022/09/11 00:34:54;;;;;;;8.50;1.33;;;;;;;15.24;93.86;98841.94;4936767;28;20311;-51
2022/09/11 00:37:21;;;;;;;1.77;1.20;;;;;;;15.25;92.67;98844.41;4937110;28;20315;-51
2022/09/11 00:39:49;;;;;;;3.27;1.47;;;;;;;15.23;92.58;98846.41;4920105;28;20240;-51
2022/09/11 00:42:16;;;;;;;3.10;1.40;;;;;;;15.21;93.57;98843.13;4918096;28;20239;-51
2022/09/11 00:45:01;;;;;;;4.97;2.20;;;;;;;15.23;91.81;98835.88;4937019;28;20241;-51
2022/09/11 00:47:30;;;;;;;3.70;1.03;;;;;;;15.23;92.48;98840.31;4914856;28;20246;-50
2022/09/11 00:50:06;;;;;;;3.20;1.23;;;;;;;15.25;93.10;98841.78;4934415;28;20239;-51
2022/09/11 00:52:36;;;;;;;3.10;1.00;;;;;;;15.24;92.03;98845.41;4941108;28;20710;-52
2022/09/11 00:55:09;;;;;;;4.27;1.50;;;;;;;15.24;92.17;98844.59;4914914;28;20230;-53
2022/09/11 00:57:42;;;;;;;5.10;1.30;;;;;;;15.25;91.93;98848.84;4938321;28;20260;-53
2022/09/11 01:00:11;;;;;;;3.20;1.17;;;;;;;15.25;91.84;98843.59;4939138;28;20625;-51
2022/09/11 01:02:41;;;;;;;3.93;1.23;;;;;;;15.23;92.80;98846.41;4938472;28;20235;-50
2022/09/11 01:05:09;;;;;;;2.03;1.20;;;;;;;15.16;92.93;98838.38;4918140;28;20235;-53
2022/09/11 01:07:36;;;;;;;4.07;1.37;;;;;;;15.19;92.77;98845.13;4933788;28;20239;-52
2022/09/11 01:10:07;;;;;;;1.73;1.00;;;;;;;15.23;90.85;98840.31;4934330;28;20245;-51
2022/09/11 01:12:40;;;;;;;4.23;1.17;;;;;;;15.24;92.13;98852.47;4939917;28;20588;-51
2022/09/11 01:15:11;;;;;;;3.03;1.37;;;;;;;15.23;91.43;98848.22;4922066;28;20219;-51
2022/09/11 01:17:47;;;;;;;5.10;1.60;;;;;;;15.27;91.39;98846.84;4941230;28;20242;-52
2022/09/11 01:20:25;;;;;;;7.97;1.50;;;;;;;15.27;90.26;98833.72;4930636;28;20249;-51
2022/09/11 01:23:03;;;;;;;2.90;1.40;;;;;;;15.26;89.69;98824.19;4919478;28;20240;-50
2022/09/11 01:25:53;;;;;;;3.43;1.43;;;;;;;15.27;91.16;98836.34;4926766;28;20254;-50
2022/09/11 01:28:25;;;;;;;3.60;1.40;;;;;;;15.28;90.19;98836.19;4936241;28;20249;-53
2022/09/11 01:30:58;;;;;;;7.43;1.50;;;;;;;15.35;90.75;98852.06;4933621;28;20386;-53
2022/09/11 01:33:29;;;;;;;1.93;1.40;;;;;;;15.36;90.31;98851.06;4931284;28;20247;-51
2022/09/11 01:36:03;;;;;;;4.27;1.40;;;;;;;15.34;90.96;98855.69;4921124;28;20233;-51
2022/09/11 01:38:36;;;;;;;4.50;1.40;;;;;;;15.34;89.26;98853.06;4937980;28;20246;-51
2022/09/11 01:41:08;;;;;;;3.20;1.30;;;;;;;15.33;90.01;98847.00;4938400;28;20287;-50
2022/09/11 01:43:44;;;;;;;5.57;1.80;;;;;;;15.31;90.12;98853.41;4914985;28;20252;-50
2022/09/11 01:46:13;;;;;;;5.00;1.50;;;;;;;15.34;89.72;98842.53;4939536;28;20335;-53
2022/09/11 01:48:45;;;;;;;4.57;1.70;;;;;;;15.27;88.78;98852.97;4922456;28;20235;-51
2022/09/11 01:51:18;;;;;;;5.40;1.47;;;;;;;15.30;90.76;98849.97;4939829;28;20318;-51
2022/09/11 01:53:50;;;;;;;4.30;1.50;;;;;;;15.31;90.81;98848.97;4925487;28;20416;-51
2022/09/11 01:56:21;;;;;;;3.10;1.67;;;;;;;15.35;90.09;98858.16;4923381;28;21237;-51
2022/09/11 01:58:56;;;;;;;6.13;1.40;;;;;;;15.33;90.26;98852.25;4920611;28;20321;-53
2022/09/11 02:01:27;;;;;;;3.10;1.43;;;;;;;15.31;89.91;98843.72;4927238;28;20247;-54
2022/09/11 02:04:00;;;;;;;4.37;1.40;;;;;;;15.29;89.68;98850.97;4923415;28;20259;-51
2022/09/11 02:06:32;;;;;;;2.67;1.30;;;;;;;15.35;90.71;98860.78;4929850;28;20743;-52
2022/09/11 02:09:02;;;;;;;5.53;1.83;;;;;;;15.30;90.96;98852.59;4915824;28;20330;-52
2022/09/11 02:11:34;;;;;;;5.40;1.87;;;;;;;15.28;91.48;98851.13;4923645;28;20309;-55
2022/09/11 02:14:10;;;;;;;3.60;1.70;;;;;;;15.28;91.86;98864.28;4919591;28;20232;-55
2022/09/11 02:16:45;;;;;;;4.97;1.90;;;;;;;15.26;92.54;98863.63;4937517;28;20232;-55
2022/09/11 02:19:14;;;;;;;4.47;1.87;;;;;;;15.22;91.59;98857.91;4920783;28;20487;-55
2022/09/11 02:21:41;;;;;;;5.37;1.70;;;;;;;15.20;93.09;98867.78;4940284;28;20237;-53
2022/09/11 02:24:09;;;;;;;6.13;1.40;;;;;;;15.13;92.26;98859.78;4918369;28;20234;-53
2022/09/11 02:26:41;;;;;;;5.20;1.70;;;;;;;15.11;93.30;98860.94;4939247;28;20250;-51
2022/09/11 02:29:10;;;;;;;3.83;1.70;;;;;;;15.11;93.76;98863.59;4921737;28;20242;-51
2022/09/11 02:31:37;;;;;;;7.73;2.07;;;;;;;15.09;94.03;98852.41;4923053;28;20239;-52
2022/09/11 02:34:04;;;;;;;6.43;2.33;;;;;;;15.08;94.54;98858.66;4925345;28;20236;-52
2022/09/11 02:36:47;;;;;;;3.07;1.90;;;;;;;15.08;95.51;98850.78;4938293;28;20230;-55
2022/09/11 02:39:34;;;;;;;4.10;2.03;;;;;;;15.11;94.66;98845.97;4928186;28;20801;-54
2022/09/11 02:42:22;;;;;;;3.33;2.07;;;;;;;15.12;94.61;98852.88;4916985;28;20260;-53
2022/09/11 02:44:58;;;;;;;3.50;1.63;;;;;;;15.10;95.62;98862.75;4921890;28;20707;-54
2022/09/11 02:47:38;;;;;;;4.37;2.03;;;;;;;15.09;96.21;98860.31;4931886;28;20259;-53
2022/09/11 02:50:11;;;;;;;5.00;1.70;;;;;;;15.06;95.47;98861.47;4932606;28;20594;-52
2022/09/11 02:52:49;;;;;;;3.50;2.10;;;;;;;15.05;95.81;98862.44;4938112;28;20230;-51
2022/09/11 02:55:30;;;;;;;4.97;2.00;;;;;;;15.05;96.57;98862.44;4939299;28;20435;-53
2022/09/11 02:58:02;;;;;;;4.07;2.23;;;;;;;15.08;95.60;98866.56;4899278;28;20226;-54
2022/09/11 03:03:49;;;;;;;4.20;2.53;;;;;;;15.08;96.04;98866.56;5740137;23;20823;-52
2022/09/11 03:06:19;;;;;;;2.70;2.30;;;;;;;15.10;95.71;98860.13;4938650;28;20231;-51
2022/09/11 03:08:49;;;;;;;5.73;2.50;;;;;;;15.11;95.85;98866.22;4912689;28;20278;-54
2022/09/11 03:11:19;;;;;;;5.97;2.77;;;;;;;15.11;95.96;98864.38;4885725;28;20874;-53
2022/09/11 03:13:49;;;;;;;4.77;2.03;;;;;;;15.09;96.02;98865.56;4935392;28;20379;-54
2022/09/11 03:16:16;;;;;;;8.33;2.70;;;;;;;15.10;95.58;98865.38;4942188;28;20322;-51
2022/09/11 03:18:44;;;;;;;7.80;2.07;;;;;;;15.10;95.78;98868.00;5296058;23;20697;-49
2022/09/11 03:21:12;;;;;;;4.47;2.43;;;;;;;15.08;96.24;98864.72;4942272;28;20282;-51
2022/09/11 03:23:39;;;;;;;8.57;3.00;;;;;;;15.06;96.60;98869.34;4947876;28;20233;-53
2022/09/11 03:26:06;;;;;;;7.27;3.00;;;;;;;15.04;96.67;98863.44;4957843;28;20250;-51
2022/09/11 03:28:34;;;;;;;5.10;2.57;;;;;;;15.03;96.39;98867.06;4944282;28;20237;-54
2022/09/11 03:31:06;;;;;;;4.53;2.73;;;;;;;15.03;96.66;98873.16;4957058;28;20218;-51
2022/09/11 03:33:33;;;;;;;6.33;2.50;;;;;;;15.03;96.37;98874.94;4950627;28;20699;-54
2022/09/11 03:36:00;;;;;;;3.20;2.33;;;;;;;15.04;96.12;98868.69;4951315;28;20780;-51
2022/09/11 03:38:47;;;;;;;5.13;2.23;;;;;;;15.04;97.16;98873.97;4959328;28;20239;-51
2022/09/11 03:41:15;;;;;;;6.33;2.53;;;;;;;15.07;96.45;98873.59;4941492;28;20263;-51
2022/09/11 03:43:42;;;;;;;5.30;2.50;;;;;;;15.04;96.94;98872.16;4949227;28;20244;-51
2022/09/11 03:46:09;;;;;;;3.43;2.53;;;;;;;15.06;97.43;98869.34;4957419;28;23512;-51
2022/09/11 03:48:36;;;;;;;6.97;2.57;;;;;;;15.06;96.68;98874.59;4948424;28;20237;-53
2022/09/11 03:51:04;;;;;;;5.77;2.70;;;;;;;15.06;96.98;98874.59;4941258;28;20229;-52
2022/09/11 03:53:31;;;;;;;6.13;2.80;;;;;;;15.06;96.66;98879.84;4942669;28;20242;-53
2022/09/11 03:56:00;;;;;;;8.10;3.07;;;;;;;15.07;96.17;98872.81;4941682;28;20576;-51
2022/09/11 03:58:29;;;;;;;9.13;3.00;;;;;;;15.08;97.19;98874.44;4943157;28;20231;-52
2022/09/11 04:00:56;;;;;;;5.57;2.63;;;;;;;15.08;97.00;98874.44;4958144;28;20456;-51
2022/09/11 04:03:23;;;;;;;6.67;2.47;;;;;;;15.09;96.49;98876.88;4942093;28;20243;-52
2022/09/11 04:05:58;;;;;;;3.80;2.80;;;;;;;15.09;96.56;98876.09;4940240;28;20248;-51
2022/09/11 04:08:26;;;;;;;3.83;2.90;;;;;;;15.14;96.52;98882.44;4951192;28;20827;-51
2022/09/11 04:11:01;;;;;;;4.47;3.20;;;;;;;15.15;96.29;98880.66;4936180;28;20238;-53
2022/09/11 04:13:30;;;;;;;7.57;3.17;;;;;;;15.12;95.82;98871.28;4959406;28;20940;-53
2022/09/11 04:16:01;;;;;;;7.57;2.70;;;;;;;15.13;95.74;98880.00;4940245;28;20316;-53
2022/09/11 04:18:30;;;;;;;3.77;2.67;;;;;;;15.11;95.73;98889.88;4959940;28;20227;-50
2022/09/11 04:20:56;;;;;;;6.30;2.60;;;;;;;15.09;95.95;98881.34;4938437;28;20235;-52
2022/09/11 04:23:24;;;;;;;11.07;3.30;;;;;;;15.08;95.89;98885.75;4942185;28;20704;-50
2022/09/11 04:25:52;;;;;;;6.67;3.20;;;;;;;15.08;96.29;98890.22;4939300;28;20310;-51
2022/09/11 04:28:21;;;;;;;6.17;2.60;;;;;;;15.07;96.64;98885.94;4956250;28;20254;-52
2022/09/11 04:30:48;;;;;;;5.50;2.50;;;;;;;15.08;96.37;98883.13;4959606;28;20292;-51
2022/09/11 04:33:15;;;;;;;4.50;2.30;;;;;;;15.08;96.67;98896.28;4939559;28;20326;-53
2022/09/11 04:35:42;;;;;;;4.60;2.13;;;;;;;15.03;96.57;98894.19;4941986;28;20237;-54
2022/09/11 04:38:10;;;;;;;2.93;2.50;;;;;;;15.02;96.55;98895.19;4953447;28;20248;-52
2022/09/11 04:40:38;;;;;;;7.17;2.77;;;;;;;15.04;98.13;98897.63;4942899;28;20237;-55
2022/09/11 04:43:05;;;;;;;4.73;2.80;;;;;;;15.01;98.39;98900.59;4939695;28;20232;-54
2022/09/11 04:45:36;;;;;;;8.83;2.90;;;;;;;15.02;99.26;98912.75;4943007;28;20593;-51
2022/09/11 04:48:04;;;;;;;7.20;2.90;;;;;;;14.97;98.80;98907.19;4939499;28;20234;-51
2022/09/11 04:50:31;;;;;;;4.53;3.30;;;;;;;14.93;98.73;98908.50;4942290;28;20314;-53
2022/09/11 04:53:13;;;;;;;4.60;3.10;;;;;;;14.90;100.00;98910.50;4944304;28;20253;-50
2022/09/11 04:55:41;;;;;;;5.70;2.80;;;;;;;14.87;99.55;98915.28;4942600;28;20661;-54
2022/09/11 04:58:08;;;;;;;5.73;2.97;;;;;;;14.84;100.00;98915.63;4939323;28;20245;-51
2022/09/11 05:00:37;;;;;;;4.70;2.63;;;;;;;14.84;100.00;98918.25;4953626;28;20237;-54
2022/09/11 05:03:03;;;;;;;5.63;3.20;;;;;;;14.75;100.00;98925.38;4955715;28;20811;-52
2022/09/11 05:05:32;;;;;;;5.10;4.13;;;;;;;14.72;100.00;98916.00;4957319;28;20333;-52
2022/09/11 05:07:58;;;;;;;7.50;4.33;;;;;;;14.70;100.00;98922.44;4944524;28;20237;-51
2022/09/11 05:10:26;;;;;;;9.17;3.93;;;;;;;14.74;100.00;98926.38;4946056;28;20817;-54
2022/09/11 05:12:54;;;;;;;9.70;4.60;;;;;;;14.72;100.00;98926.50;4942444;28;20310;-51
2022/09/11 05:15:21;;;;;;;8.50;3.33;;;;;;;14.74;100.00;98932.41;4944583;28;20230;-51
2022/09/11 05:17:49;;;;;;;9.67;4.37;;;;;;;14.75;100.00;98931.44;4946407;28;20318;-52
2022/09/11 05:20:19;;;;;;;8.03;4.00;;;;;;;14.77;100.00;98931.28;4943264;28;20234;-51
2022/09/11 05:22:45;;;;;;;6.57;3.53;;;;;;;14.73;100.00;98936.03;4961959;28;20237;-52
2022/09/11 05:25:13;;;;;;;6.73;4.63;;;;;;;14.70;100.00;98936.38;4942638;28;20679;-54
2022/09/11 05:27:40;;;;;;;4.73;3.07;;;;;;;14.78;100.00;98940.81;4949921;28;20257;-54
2022/09/11 05:30:07;;;;;;;12.57;4.33;;;;;;;14.75;100.00;98941.13;4942800;28;20682;-51
2022/09/11 05:32:34;;;;;;;6.13;4.27;;;;;;;14.75;100.00;98949.03;4946300;28;20334;-53
2022/09/11 05:35:04;;;;;;;6.57;3.87;;;;;;;14.77;100.00;98957.56;4942661;28;20233;-53
2022/09/11 05:37:30;;;;;;;6.83;6.13;;;;;;;14.76;100.00;98945.41;4954636;28;20642;-52
2022/09/11 05:39:58;;;;;;;7.33;5.93;;;;;;;14.82;100.00;98949.16;4949736;28;20301;-53
2022/09/11 05:42:27;;;;;;;7.73;5.63;;;;;;;14.84;100.00;98950.59;4945078;28;20229;-53
2022/09/11 05:44:54;;;;;;;5.93;4.50;;;;;;;14.88;100.00;98956.34;4945522;28;20254;-52
2022/09/11 05:47:23;;;;;;;8.47;5.00;;;;;;;14.90;100.00;98957.00;4954977;28;20248;-50
2022/09/11 05:49:53;;;;;;;7.57;4.77;;;;;;;14.90;100.00;98964.88;4942307;28;20305;-53
2022/09/11 05:52:21;;;;;;;8.77;5.23;;;;;;;14.90;100.00;98970.94;4950225;28;20246;-51
2022/09/11 05:54:50;;;;;;;10.30;5.13;;;;;;;14.91;100.00;98975.22;4941684;28;20238;-52
2022/09/11 05:57:17;;;;;;;6.23;4.63;;;;;;;14.95;100.00;98977.50;4944744;28;20242;-51
2022/09/11 05:59:43;;;;;;;8.50;5.43;;;;;;;14.95;100.00;98980.13;4961060;28;20231;-54
2022/09/11 06:02:10;;;;;;;14.43;5.93;;;;;;;14.96;100.00;98981.78;4960826;28;20263;-50
2022/09/11 06:04:48;;;;;;;6.90;5.43;;;;;;;14.97;100.00;98978.16;4945089;28;20237;-53
2022/09/11 06:07:15;;;;;;;7.33;5.27;;;;;;;14.98;100.00;98979.78;4941208;28;20237;-54
2022/09/11 06:09:46;;;;;;;10.03;6.67;;;;;;;14.98;100.00;98987.69;4953070;28;20257;-51
2022/09/11 06:12:13;;;;;;;11.27;6.40;;;;;;;15.00;100.00;98983.06;4941442;28;20245;-51
2022/09/11 06:14:43;;;;;;;8.20;5.63;;;;;;;15.02;100.00;98989.81;4946728;28;20293;-51
2022/09/11 06:17:11;;;;;;;7.07;5.87;;;;;;;15.05;100.00;99004.41;4942309;28;20248;-52
2022/09/11 06:19:38;;;;;;;9.17;5.30;;;;;;;15.05;100.00;98996.53;4945482;28;20237;-53
2022/09/11 06:22:05;;;;;;;12.23;5.87;;;;;;;15.02;100.00;99002.13;4941257;28;20710;-53
2022/09/11 06:24:39;;;;;;;11.00;6.03;;;;;;;15.02;100.00;99015.25;4949874;28;20774;-53
2022/09/11 06:27:07;;;;;;;11.73;5.80;;;;;;;14.99;100.00;99011.19;4951795;28;20219;-51
2022/09/11 06:29:37;;;;;;;8.20;5.67;;;;;;;15.02;100.00;99004.75;4945161;28;20577;-51
2022/09/11 06:32:05;;;;;;;10.10;5.93;;;;;;;15.07;100.00;99017.41;4942493;28;20227;-52
2022/09/11 06:34:32;;;;;;;8.30;5.40;;;;;;;15.03;100.00;99019.53;4945379;28;20246;-50
2022/09/11 06:37:03;;;;;;;10.77;5.40;;;;;;;15.08;100.00;99016.41;4942694;28;20609;-52
2022/09/11 06:39:32;;;;;;;9.97;6.37;;;;;;;15.02;100.00;99017.91;4956156;28;20230;-53
2022/09/11 06:41:59;;;;;;;14.37;7.17;;;;;;;15.00;100.00;99018.06;4940218;28;20219;-51
2022/09/11 06:44:31;;;;;;;14.20;6.43;;;;;;;15.01;100.00;99016.25;4944639;28;20249;-51
2022/09/11 06:47:00;;;;;;;11.03;6.97;;;;;;;15.08;100.00;99014.59;4940732;28;21732;-51
2022/09/11 06:49:27;;;;;;;10.33;6.20;;;;;;;15.17;100.00;99013.56;4945216;28;20531;-51
2022/09/11 06:52:12;;;;;;;10.23;6.10;;;;;;;15.25;100.00;99011.88;4959054;28;20236;-51
2022/09/11 06:54:43;;;;;;;10.00;6.00;;;;;;;15.27;100.00;99018.63;4945926;28;20258;-53
2022/09/11 06:57:14;;;;;;;10.83;5.93;;;;;;;15.32;100.00;99016.31;4940927;28;20265;-51
2022/09/11 06:59:43;;;;;;;8.73;6.40;;;;;;;15.31;99.53;99022.56;4946921;28;20230;-51
2022/09/11 07:02:10;;;;;;;12.13;6.47;;;;;;;15.33;99.61;99020.56;4940772;28;20686;-54
2022/09/11 07:04:38;;;;;;;8.70;7.07;;;;;;;15.36;98.77;99022.03;4947762;28;20733;-52
2022/09/11 07:07:05;;;;;;;9.13;6.13;;;;;;;15.42;99.23;99010.81;4940244;28;20301;-53
2022/09/11 07:09:32;;;;;;;9.67;7.47;;;;;;;15.44;98.64;99016.72;4943053;28;20317;-50
2022/09/11 07:11:59;;;;;;;10.33;7.17;;;;;;;15.49;98.40;99019.66;4946549;28;20234;-50
2022/09/11 07:14:27;;;;;;;9.70;6.70;;;;;;;15.50;98.47;99026.56;4943257;28;20707;-51
2022/09/11 07:17:04;;;;;;;13.73;6.50;;;;;;;15.46;98.57;99017.38;4943587;28;20733;-53
2022/09/11 07:19:32;;;;;;;10.93;7.67;;;;;;;15.47;97.73;99021.66;4958416;28;20227;-53
2022/09/11 07:21:59;;;;;;;9.50;7.17;;;;;;;15.53;97.85;99025.38;4946477;28;20832;-50
2022/09/11 07:24:28;;;;;;;14.87;11.57;;;;;;;15.57;97.29;99023.25;4960923;28;20262;-51
2022/09/11 07:26:55;;;;;;;14.13;9.63;;;;;;;15.70;98.53;99034.03;4939689;28;20227;-50
2022/09/11 07:29:28;;;;;;;12.27;6.53;;;;;;;15.79;98.79;99037.41;4944081;28;20275;-52
2022/09/11 07:31:57;;;;;;;11.40;6.40;;;;;;;15.73;97.52;99025.78;4940086;28;20262;-51
2022/09/11 07:34:25;;;;;;;16.30;6.90;;;;;;;15.77;97.97;99024.44;4943730;28;20238;-53
2022/09/11 07:36:52;;;;;;;12.50;6.60;;;;;;;15.77;96.10;99037.59;4939223;28;20365;-50
2022/09/11 07:39:21;;;;;;;8.87;6.57;;;;;;;15.77;95.78;99037.59;4944544;28;20229;-54
2022/09/11 07:41:53;;;;;;;10.97;6.97;;;;;;;15.71;95.90;99040.91;4941435;28;20230;-53
2022/09/11 07:44:27;;;;;;;13.03;6.70;;;;;;;15.76;95.84;99043.03;4949870;28;20245;-53
2022/09/11 07:46:54;;;;;;;13.07;7.37;;;;;;;15.78;96.22;99046.28;4939524;28;20222;-54
2022/09/11 07:49:21;;;;;;;11.30;6.43;;;;;;;15.85;96.70;99049.88;4943319;28;20234;-54
2022/09/11 07:51:51;;;;;;;12.73;7.00;;;;;;;15.90;95.47;99055.47;4943518;28;20230;-52
2022/09/11 07:54:27;;;;;;;9.53;6.50;;;;;;;15.95;95.33;99054.94;4941481;28;20595;-53
2022/09/11 07:57:12;;;;;;;11.40;5.70;;;;;;;16.13;94.78;99052.03;4958148;28;20249;-50
2022/09/11 07:59:40;;;;;;;9.03;6.90;;;;;;;16.29;94.56;99061.59;4941363;28;20264;-52
2022/09/11 08:02:10;;;;;;;13.93;6.70;;;;;;;16.55;93.27;99060.38;4939560;28;20236;-52
2022/09/11 08:04:37;;;;;;;11.90;7.87;;;;;;;16.61;90.14;99056.22;4943169;28;20701;-50
2022/09/11 08:07:06;;;;;;;8.23;5.97;;;;;;;16.79;90.53;99050.63;4957367;28;20227;-50
2022/09/11 08:09:34;;;;;;;10.27;6.30;;;;;;;16.98;90.75;99065.09;4942936;28;20825;-50
2022/09/11 08:12:19;;;;;;;7.57;5.90;;;;;;;17.16;88.91;99070.00;4958081;28;20648;-52
2022/09/11 08:14:46;;;;;;;9.40;6.43;;;;;;;17.25;86.68;99061.00;4941341;28;20233;-51
2022/09/11 08:17:18;;;;;;;14.17;6.70;;;;;;;17.31;85.77;99063.91;4943283;28;20604;-51
2022/09/11 08:19:47;;;;;;;8.07;6.80;;;;;;;17.31;86.31;99066.53;4942217;28;20309;-51
2022/09/11 08:22:15;;;;;;;9.60;5.90;;;;;;;17.29;86.03;99073.81;4940489;28;20248;-52
2022/09/11 08:24:44;;;;;;;11.60;7.00;;;;;;;17.08;86.22;99068.28;4942804;28;20721;-53
2022/09/11 08:27:15;;;;;;;12.00;7.30;;;;;;;16.88;86.80;99067.16;4951839;28;20239;-51
2022/09/11 08:29:42;;;;;;;15.43;7.50;;;;;;;16.92;87.34;99065.78;4942233;28;20723;-50
2022/09/11 08:32:12;;;;;;;9.57;6.70;;;;;;;16.94;86.98;99072.53;4939067;28;20243;-50
2022/09/11 08:34:39;;;;;;;6.83;5.93;;;;;;;17.10;88.22;99073.34;4940984;28;20732;-54
2022/09/11 08:37:06;;;;;;;12.13;8.77;;;;;;;17.17;86.65;99076.91;4940005;28;20299;-53
2022/09/11 08:39:36;;;;;;;12.37;7.60;;;;;;;17.21;84.71;99072.09;4948581;28;20313;-52
2022/09/11 08:42:12;;;;;;;13.43;7.70;;;;;;;17.32;84.41;99079.56;4939330;28;20218;-53
2022/09/11 08:44:47;;;;;;;6.93;5.93;;;;;;;17.61;84.17;99072.56;4942012;28;20237;-52
2022/09/11 08:47:28;;;;;;;8.40;5.67;;;;;;;17.77;82.13;99079.47;4943013;28;20225;-50
2022/09/11 08:50:02;;;;;;;9.37;6.50;;;;;;;17.74;81.16;99079.84;4944151;28;20299;-51
2022/09/11 08:52:33;;;;;;;10.30;7.07;;;;;;;17.99;80.98;99090.91;4946411;28;20288;-52
2022/09/11 08:55:03;;;;;;;9.93;6.80;;;;;;;18.20;80.43;99091.06;4942893;28;20225;-53
2022/09/11 08:57:40;;;;;;;11.17;6.03;;;;;;;18.44;78.69;99088.03;4953052;28;20712;-53
2022/09/11 09:00:16;;;;;;;7.53;6.00;;;;;;;18.54;78.02;99086.91;4943163;28;20217;-51
2022/09/11 09:03:15;;;;;;;9.70;5.20;;;;;;;18.94;76.13;99091.66;4940607;28;20225;-52
2022/09/11 09:05:49;;;;;;;9.57;6.70;;;;;;;18.86;74.18;99092.63;4964230;28;20289;-54
2022/09/11 09:08:28;;;;;;;7.17;5.10;;;;;;;18.65;75.96;99093.47;4960774;28;20283;-51
2022/09/11 09:11:04;;;;;;;8.37;5.57;;;;;;;18.76;74.87;99089.50;4942180;28;20236;-51
2022/09/11 09:13:55;;;;;;;8.13;5.10;;;;;;;19.22;74.38;99081.03;4944936;28;20242;-59
2022/09/11 09:16:33;;;;;;;7.03;6.03;;;;;;;19.31;73.46;99082.53;4959216;28;20242;-52
2022/09/11 09:19:08;;;;;;;7.37;5.20;;;;;;;19.47;72.11;99081.38;4940764;28;20278;-52
2022/09/11 09:21:40;;;;;;;11.10;5.80;;;;;;;19.43;73.02;99089.91;4947348;28;20231;-52
2022/09/11 09:24:19;;;;;;;6.97;5.47;;;;;;;19.36;71.05;99086.41;4942698;28;20323;-52
2022/09/11 09:26:52;;;;;;;7.43;5.80;;;;;;;19.40;71.54;99091.13;4948540;28;20472;-52
2022/09/11 09:29:22;;;;;;;10.20;5.20;;;;;;;19.43;71.00;99088.09;4942982;28;20270;-51
2022/09/11 09:31:53;;;;;;;8.63;5.30;;;;;;;19.87;69.82;99099.22;4945900;28;21491;-51
2022/09/11 09:34:26;;;;;;;8.50;5.03;;;;;;;19.80;69.40;99089.63;4950085;28;20265;-52
2022/09/11 09:36:59;;;;;;;6.97;5.43;;;;;;;19.54;70.26;99093.84;4947108;28;20234;-51
2022/09/11 09:39:26;;;;;;;9.93;5.50;;;;;;;19.49;69.29;99090.97;4946481;28;20757;-51
2022/09/11 09:42:16;;;;;;;6.23;5.20;;;;;;;19.18;69.43;99098.31;4950748;28;20946;-52
2022/09/11 09:45:02;;;;;;;10.00;5.70;;;;;;;19.24;69.93;99091.44;4945282;28;20261;-50
2022/09/11 09:47:29;;;;;;;7.77;4.97;;;;;;;19.26;69.29;99087.59;4959930;28;20269;-52
2022/09/11 09:49:57;;;;;;;6.80;5.47;;;;;;;19.53;68.77;99090.34;4960427;28;20221;-54
2022/09/11 09:52:26;;;;;;;6.73;4.57;;;;;;;19.70;69.01;99092.66;4964147;28;20308;-53
2022/09/11 09:54:57;;;;;;;6.13;4.73;;;;;;;19.42;67.31;99093.56;4959199;28;20718;-51
2022/09/11 09:57:31;;;;;;;6.83;4.73;;;;;;;19.47;69.15;99094.63;4963570;28;20281;-52
2022/09/11 10:00:04;;;;;;;6.10;4.17;;;;;;;19.52;70.81;99094.00;4942064;28;20238;-50
2022/09/11 10:02:41;;;;;;;7.47;4.63;;;;;;;19.33;68.67;99082.34;4961400;28;20236;-51
2022/09/11 10:05:17;;;;;;;7.00;4.60;;;;;;;19.38;68.41;99079.09;4960321;28;20594;-50
2022/09/11 10:07:49;;;;;;;7.07;4.57;;;;;;;19.58;69.45;99085.28;4962493;28;20233;-51
2022/09/11 10:10:25;;;;;;;7.47;4.53;;;;;;;19.94;68.55;99085.22;4960189;28;20238;-51
2022/09/11 10:12:55;;;;;;;5.63;4.20;;;;;;;20.06;68.01;99092.34;4960064;28;20582;-51
2022/09/11 10:15:24;;;;;;;6.60;3.67;;;;;;;20.11;67.24;99085.63;4963064;28;20234;-52
2022/09/11 10:17:52;;;;;;;6.00;4.10;;;;;;;20.09;68.40;99085.84;4956755;28;20215;-54
2022/09/11 10:20:27;;;;;;;7.43;4.70;;;;;;;20.03;67.27;99081.38;4962334;28;20226;-51
2022/09/11 10:22:55;;;;;;;5.73;4.60;;;;;;;20.11;67.53;99073.22;4960095;28;20273;-52
2022/09/11 10:25:25;;;;;;;8.13;4.70;;;;;;;19.73;65.43;99061.28;4962340;28;20227;-51
2022/09/11 10:28:03;;;;;;;6.13;4.43;;;;;;;20.05;66.66;99060.78;4959603;28;20280;-51
2022/09/11 10:30:33;;;;;;;7.03;4.47;;;;;;;20.13;66.81;99062.41;4961724;28;20234;-53
2022/09/11 10:33:03;;;;;;;7.40;3.90;;;;;;;20.30;65.80;99050.38;4958283;28;20225;-54
2022/09/11 10:35:33;;;;;;;5.77;4.10;;;;;;;20.32;66.22;99058.13;4962076;28;20270;-51
2022/09/11 10:38:17;;;;;;;5.07;3.57;;;;;;;20.26;65.95;99046.50;4958938;28;20226;-51
2022/09/11 10:40:58;;;;;;;3.63;3.27;;;;;;;20.20;67.01;99053.44;4962805;28;20308;-51
2022/09/11 10:43:36;;;;;;;6.00;3.77;;;;;;;20.40;67.24;99057.13;4959072;28;20238;-51
2022/09/11 10:46:20;;;;;;;5.67;3.90;;;;;;;20.23;65.00;99057.53;4941644;28;20989;-51
2022/09/11 10:48:53;;;;;;;4.63;3.47;;;;;;;20.41;65.07;99059.56;4959536;28;21071;-54
2022/09/11 10:51:20;;;;;;;5.53;3.77;;;;;;;20.44;66.80;99053.84;4959539;28;20290;-51
2022/09/11 10:54:06;;;;;;;5.87;3.50;;;;;;;20.41;63.51;99048.94;4961967;28;20892;-52
2022/09/11 10:56:38;;;;;;;4.07;3.43;;;;;;;20.26;64.82;99059.75;4958002;28;20303;-55
2022/09/11 10:59:16;;;;;;;4.27;2.97;;;;;;;20.19;65.17;99065.03;4959739;28;20230;-52
2022/09/11 11:01:43;;;;;;;4.67;3.63;;;;;;;20.31;65.56;99052.03;4962068;28;20238;-54
2022/09/11 11:04:12;;;;;;;4.83;3.27;;;;;;;20.20;64.90;99053.44;4938164;28;20714;-51
2022/09/11 11:06:54;;;;;;;4.70;3.30;;;;;;;20.26;64.48;99059.75;4960967;28;20678;-53
2022/09/11 11:09:37;;;;;;;5.03;3.30;;;;;;;19.91;64.86;99058.09;4959288;28;20239;-51
2022/09/11 11:12:31;;;;;;;6.80;3.30;;;;;;;19.60;65.84;99051.47;4959181;28;20330;-54
2022/09/11 11:15:26;;;;;;;5.53;3.27;;;;;;;19.85;66.21;99063.34;4957242;28;20247;-50
2022/09/11 11:18:13;;;;;;;5.60;2.80;;;;;;;20.05;63.68;99056.28;4955422;28;20234;-53
2022/09/11 11:20:50;;;;;;;3.90;3.47;;;;;;;19.93;64.32;99055.25;4962384;28;20329;-51
2022/09/11 11:23:39;;;;;;;4.03;2.80;;;;;;;20.26;63.63;99043.03;4958967;28;20324;-52
2022/09/11 11:26:17;;;;;;;3.47;2.67;;;;;;;20.62;60.55;99053.22;4958585;28;20685;-53
2022/09/11 11:28:59;;;;;;;3.97;2.80;;;;;;;20.72;60.69;99057.28;4944284;28;20380;-53
2022/09/11 11:31:38;;;;;;;3.57;2.50;;;;;;;21.19;59.96;99052.69;4958412;28;20251;-52
2022/09/11 11:34:22;;;;;;;6.03;3.23;;;;;;;21.44;59.45;99059.97;4956750;28;20305;-53
2022/09/11 11:36:54;;;;;;;7.00;3.83;;;;;;;20.81;60.24;99056.06;4961571;28;20234;-53
2022/09/11 11:39:28;;;;;;;2.97;2.73;;;;;;;20.90;61.57;99057.47;4958168;28;20234;-55
2022/09/11 11:42:06;;;;;;;3.90;3.20;;;;;;;20.77;60.17;99062.78;4956819;28;20274;-55
2022/09/11 11:44:39;;;;;;;3.40;2.50;;;;;;;20.59;58.84;99058.13;4960258;28;20265;-50
2022/09/11 11:47:09;;;;;;;4.67;3.00;;;;;;;20.75;59.94;99056.84;4955213;28;20231;-50
2022/09/11 11:49:52;;;;;;;6.00;3.13;;;;;;;20.72;57.66;99057.28;4960563;28;20248;-52
2022/09/11 11:52:30;;;;;;;4.70;2.60;;;;;;;20.54;58.74;99047.31;4959012;28;20242;-53
2022/09/11 11:55:03;;;;;;;2.67;1.90;;;;;;;20.65;59.48;99050.16;4957539;28;20240;-54